createdAt,value
2022-12-09T00:00:38.703Z,33.77
2022-12-09T00:03:06.203Z,26.30
2022-12-09T00:05:33.011Z,25.33
2022-12-09T00:08:00.521Z,26.47
2022-12-09T00:10:27.624Z,25.87
2022-12-09T00:12:56.330Z,26.03
2022-12-09T00:15:23.234Z,29.07
2022-12-09T00:17:50.060Z,25.37
2022-12-09T00:20:17.046Z,25.17
2022-12-09T00:22:44.017Z,26.67
2022-12-09T00:25:10.742Z,23.73
2022-12-09T00:27:37.767Z,24.80
2022-12-09T00:30:05.945Z,24.60
2022-12-09T00:32:33.507Z,24.00
2022-12-09T00:35:00.965Z,24.60
2022-12-09T00:37:27.777Z,25.13
2022-12-09T00:39:54.906Z,25.87
2022-12-09T00:42:21.745Z,23.57
2022-12-09T00:44:48.709Z,22.90
2022-12-09T00:47:15.531Z,26.20
2022-12-09T00:49:42.389Z,25.70
2022-12-09T00:52:09.153Z,25.90
2022-12-09T00:54:36.308Z,23.70
2022-12-09T00:57:03.111Z,24.17
2022-12-09T00:59:30.304Z,23.23
2022-12-09T01:01:57.306Z,24.13
2022-12-09T01:04:37.346Z,24.37
2022-12-09T01:07:04.323Z,24.00
2022-12-09T01:09:34.406Z,22.67
2022-12-09T01:12:01.753Z,24.00
2022-12-09T01:14:28.896Z,25.23
2022-12-09T01:16:56.422Z,29.30
2022-12-09T01:19:23.632Z,24.00
2022-12-09T01:21:54.917Z,22.67
2022-12-09T01:24:22.670Z,26.23
2022-12-09T01:26:49.712Z,24.30
2022-12-09T01:29:16.881Z,23.67
2022-12-09T01:31:43.832Z,23.47
2022-12-09T01:34:11.347Z,25.93
2022-12-09T01:36:39.003Z,23.23
2022-12-09T01:39:06.394Z,26.23
2022-12-09T01:41:33.646Z,23.37
2022-12-09T01:44:21.911Z,26.13
2022-12-09T01:46:49.938Z,22.67
2022-12-09T01:49:28.858Z,25.83
2022-12-09T01:52:24.356Z,23.00
2022-12-09T01:54:52.845Z,26.60
2022-12-09T01:57:20.051Z,21.63
2022-12-09T01:59:47.313Z,22.57
2022-12-09T02:02:17.746Z,25.40
2022-12-09T02:04:47.990Z,23.00
2022-12-09T02:07:15.293Z,20.07
2022-12-09T02:09:43.174Z,20.73
2022-12-09T02:12:16.286Z,21.90
2022-12-09T02:14:43.514Z,21.40
2022-12-09T02:17:10.327Z,21.30
2022-12-09T02:19:50.640Z,20.57
2022-12-09T02:22:24.739Z,22.50
2022-12-09T02:25:13.936Z,21.20
2022-12-09T02:27:51.164Z,23.57
2022-12-09T02:30:24.563Z,24.73
2022-12-09T02:33:08.941Z,23.83
2022-12-09T02:35:42.174Z,20.70
2022-12-09T02:38:20.464Z,29.13
2022-12-09T02:40:51.061Z,20.10
2022-12-09T02:43:22.424Z,25.17
2022-12-09T02:45:50.587Z,25.70
2022-12-09T02:48:22.918Z,19.40
2022-12-09T02:50:52.868Z,19.90
2022-12-09T02:53:20.883Z,20.90
2022-12-09T02:55:49.159Z,19.93
2022-12-09T02:58:15.919Z,19.80
2022-12-09T03:00:43.151Z,18.87
2022-12-09T03:03:15.305Z,19.60
2022-12-09T03:06:03.524Z,19.50
2022-12-09T03:08:30.777Z,17.90
2022-12-09T03:11:00.482Z,19.27
2022-12-09T03:13:47.465Z,19.73
2022-12-09T03:16:20.128Z,20.80
2022-12-09T03:18:52.783Z,17.90
2022-12-09T03:21:22.608Z,18.20
2022-12-09T03:23:53.725Z,18.77
2022-12-09T03:26:22.214Z,19.47
2022-12-09T03:28:50.995Z,17.77
2022-12-09T03:31:22.299Z,18.60
2022-12-09T03:33:52.951Z,22.37
2022-12-09T03:36:23.095Z,20.10
2022-12-09T03:38:53.581Z,20.10
2022-12-09T03:41:28.612Z,20.43
2022-12-09T03:44:12.634Z,20.40
2022-12-09T03:46:40.122Z,19.60
2022-12-09T03:49:07.454Z,18.07
2022-12-09T03:51:46.280Z,19.57
2022-12-09T03:54:27.014Z,21.00
2022-12-09T03:56:57.226Z,18.53
2022-12-09T03:59:28.698Z,18.57
2022-12-09T04:01:55.905Z,18.53
2022-12-09T04:04:22.960Z,20.17
2022-12-09T04:06:52.454Z,19.20
2022-12-09T04:09:19.303Z,19.57
2022-12-09T04:11:46.940Z,20.87
2022-12-09T04:14:15.991Z,20.70
2022-12-09T04:16:43.846Z,19.83
2022-12-09T04:19:11.084Z,19.80
2022-12-09T04:21:37.951Z,19.97
2022-12-09T04:24:05.040Z,20.33
2022-12-09T04:26:31.824Z,21.07
2022-12-09T04:28:59.033Z,19.00
2022-12-09T04:31:25.897Z,21.53
2022-12-09T04:33:52.694Z,21.50
2022-12-09T04:36:20.306Z,28.17
2022-12-09T04:38:47.839Z,25.47
2022-12-09T04:41:15.438Z,21.17
2022-12-09T04:43:42.628Z,22.90
2022-12-09T04:46:12.996Z,21.33
2022-12-09T04:48:40.002Z,22.10
2022-12-09T04:51:11.918Z,21.87
2022-12-09T04:53:39.457Z,20.43
2022-12-09T04:56:21.446Z,21.40
2022-12-09T04:58:50.020Z,19.77
2022-12-09T05:01:22.639Z,21.30
2022-12-09T05:03:54.112Z,20.80
2022-12-09T05:06:22.965Z,21.50
2022-12-09T05:08:51.328Z,18.93
2022-12-09T05:11:19.895Z,20.67
2022-12-09T05:13:47.943Z,20.07
2022-12-09T05:16:18.373Z,20.17
2022-12-09T05:18:47.347Z,19.47
2022-12-09T05:21:17.289Z,20.17
2022-12-09T05:23:44.537Z,21.07
2022-12-09T05:26:14.514Z,20.50
2022-12-09T05:28:41.767Z,20.27
2022-12-09T05:31:12.366Z,18.10
2022-12-09T05:33:39.729Z,18.60
2022-12-09T05:36:13.765Z,20.30
2022-12-09T05:38:41.914Z,20.20
2022-12-09T05:41:09.215Z,23.70
2022-12-09T05:43:37.244Z,21.80
2022-12-09T05:46:05.943Z,21.23
2022-12-09T05:48:33.474Z,22.17
2022-12-09T05:51:05.343Z,20.50
2022-12-09T05:53:32.969Z,23.13
2022-12-09T05:56:00.215Z,19.80
2022-12-09T05:58:27.676Z,22.40
2022-12-09T06:00:56.714Z,22.30
2022-12-09T06:03:25.122Z,20.43
2022-12-09T06:05:52.346Z,21.43
2022-12-09T06:08:19.894Z,20.37
2022-12-09T06:10:47.418Z,22.90
2022-12-09T06:13:14.728Z,21.40
2022-12-09T06:15:41.829Z,25.93
2022-12-09T06:18:09.237Z,26.00
2022-12-09T06:20:39.883Z,20.13
2022-12-09T06:23:07.322Z,21.90
2022-12-09T06:25:34.951Z,19.37
2022-12-09T06:28:02.817Z,20.50
2022-12-09T06:30:30.766Z,23.80
2022-12-09T06:32:58.421Z,23.83
2022-12-09T06:35:26.060Z,21.90
2022-12-09T06:37:53.707Z,20.40
2022-12-09T06:40:24.315Z,19.50
2022-12-09T06:42:51.910Z,20.20
2022-12-09T06:45:19.971Z,14.00
2022-12-09T06:47:47.800Z,16.57
2022-12-09T06:50:15.446Z,16.77
2022-12-09T06:52:42.886Z,19.60
2022-12-09T06:55:11.217Z,21.00
2022-12-09T06:57:38.918Z,12.00
2022-12-09T07:00:06.596Z,14.90
2022-12-09T07:02:36.895Z,17.10
2022-12-09T07:05:05.469Z,17.10
2022-12-09T07:07:33.323Z,16.77
2022-12-09T07:10:03.107Z,17.40
2022-12-09T07:12:30.921Z,19.20
2022-12-09T07:14:58.225Z,17.53
2022-12-09T07:17:25.490Z,17.90
2022-12-09T07:19:52.689Z,19.53
2022-12-09T07:22:19.737Z,20.40
2022-12-09T07:24:46.503Z,20.60
2022-12-09T07:27:19.290Z,19.67
2022-12-09T07:29:48.178Z,19.00
2022-12-09T07:32:17.263Z,18.00
2022-12-09T07:34:45.704Z,17.70
2022-12-09T07:37:13.890Z,19.50
2022-12-09T07:39:41.227Z,18.13
2022-12-09T07:42:08.298Z,18.47
2022-12-09T07:44:36.502Z,19.43
2022-12-09T07:47:04.044Z,18.47
2022-12-09T07:49:31.123Z,16.50
2022-12-09T07:51:58.757Z,16.60
2022-12-09T07:54:25.996Z,16.27
2022-12-09T07:56:53.153Z,17.00
2022-12-09T07:59:21.083Z,16.27
2022-12-09T08:01:48.114Z,16.90
2022-12-09T08:04:15.505Z,18.57
2022-12-09T08:06:42.530Z,17.97
2022-12-09T08:09:12.657Z,18.13
2022-12-09T08:11:40.940Z,17.77
2022-12-09T08:14:12.549Z,17.90
2022-12-09T08:16:42.005Z,19.53
2022-12-09T08:19:10.259Z,21.43
2022-12-09T08:21:37.742Z,18.70
2022-12-09T08:24:07.796Z,19.50
2022-12-09T08:26:37.538Z,21.60
2022-12-09T08:29:08.418Z,19.20
2022-12-09T08:31:40.602Z,19.07
2022-12-09T08:34:09.007Z,18.63
2022-12-09T08:36:37.111Z,18.50
2022-12-09T08:39:05.277Z,17.70
2022-12-09T08:41:37.750Z,18.30
2022-12-09T08:44:07.226Z,18.30
2022-12-09T08:46:34.957Z,17.77
2022-12-09T08:49:02.766Z,17.77
2022-12-09T08:51:31.125Z,16.97
2022-12-09T08:53:58.955Z,16.63
2022-12-09T08:56:27.034Z,18.80
2022-12-09T08:58:55.575Z,16.50
2022-12-09T09:01:37.365Z,18.93
2022-12-09T09:04:09.614Z,19.00
2022-12-09T09:06:38.715Z,16.60
2022-12-09T09:09:08.337Z,17.57
2022-12-09T09:11:38.836Z,16.97
2022-12-09T09:14:08.497Z,17.83
2022-12-09T09:16:37.230Z,20.13
2022-12-09T09:19:06.008Z,17.70
2022-12-09T09:21:34.014Z,18.03
2022-12-09T09:24:01.660Z,19.23
2022-12-09T09:26:29.047Z,19.63
2022-12-09T09:28:59.283Z,15.47
2022-12-09T09:31:26.761Z,18.03
2022-12-09T09:33:54.233Z,16.00
2022-12-09T09:36:26.446Z,18.17
2022-12-09T09:38:55.960Z,17.30
2022-12-09T09:41:44.513Z,18.17
2022-12-09T09:44:33.896Z,18.00
2022-12-09T09:47:11.526Z,20.20
2022-12-09T09:49:58.822Z,16.63
2022-12-09T09:52:28.409Z,18.70
2022-12-09T09:54:58.615Z,18.87
2022-12-09T09:57:54.356Z,17.70
2022-12-09T10:00:32.537Z,15.87
2022-12-09T10:03:10.653Z,16.87
2022-12-09T10:05:53.860Z,16.13
2022-12-09T10:08:28.003Z,15.50
2022-12-09T10:11:20.021Z,16.30
2022-12-09T10:13:56.239Z,16.60
2022-12-09T10:16:31.479Z,16.17
2022-12-09T10:19:12.205Z,16.90
2022-12-09T10:21:44.362Z,17.30
2022-12-09T10:24:20.234Z,16.60
2022-12-09T10:27:06.875Z,17.90
2022-12-09T10:29:53.036Z,15.77
2022-12-09T10:32:23.428Z,17.70
2022-12-09T10:34:51.430Z,18.00
2022-12-09T10:37:38.926Z,16.33
2022-12-09T10:40:16.384Z,16.87
2022-12-09T10:43:02.122Z,17.47
2022-12-09T10:45:52.487Z,15.67
2022-12-09T10:48:32.454Z,14.53
2022-12-09T10:51:03.918Z,12.13
2022-12-09T10:53:33.241Z,13.40
2022-12-09T10:56:02.640Z,14.40
2022-12-09T10:58:31.863Z,12.50
2022-12-09T11:01:00.895Z,13.90
2022-12-09T11:03:40.559Z,14.13
2022-12-09T11:06:23.124Z,14.00
2022-12-09T11:09:02.194Z,13.17
2022-12-09T11:11:41.424Z,13.60
2022-12-09T11:14:36.071Z,14.27
2022-12-09T11:17:17.169Z,13.53
2022-12-09T11:19:48.130Z,13.60
2022-12-09T11:22:40.287Z,13.60
2022-12-09T11:25:27.338Z,13.83
2022-12-09T11:27:57.771Z,14.47
2022-12-09T11:30:29.806Z,15.03
2022-12-09T11:32:59.700Z,13.63
2022-12-09T11:35:31.546Z,14.67
2022-12-09T11:38:03.671Z,14.77
2022-12-09T11:40:32.685Z,14.77
2022-12-09T11:42:59.837Z,15.67
2022-12-09T11:45:34.746Z,14.37
2022-12-09T11:48:30.304Z,13.63
2022-12-09T11:51:02.256Z,14.17
2022-12-09T11:53:30.464Z,13.53
2022-12-09T11:56:09.504Z,13.20
2022-12-09T11:58:40.900Z,13.97
2022-12-09T12:01:24.356Z,14.90
2022-12-09T12:03:57.030Z,14.77
2022-12-09T12:06:27.805Z,14.43
2022-12-09T12:09:32.735Z,15.20
2022-12-09T12:12:10.431Z,16.37
2022-12-09T12:14:41.282Z,15.70
2022-12-09T12:17:22.446Z,16.13
2022-12-09T12:19:52.309Z,15.53
2022-12-09T12:23:07.636Z,16.23
2022-12-09T12:26:05.446Z,16.33
2022-12-09T12:28:32.619Z,20.23
2022-12-09T12:31:33.989Z,24.50
2022-12-09T12:34:24.595Z,22.67
2022-12-09T12:37:06.584Z,17.97
2022-12-09T12:39:39.298Z,17.90
2022-12-09T12:42:34.092Z,18.40
2022-12-09T12:45:30.268Z,14.70
2022-12-09T12:48:19.618Z,14.83
2022-12-09T12:51:01.167Z,16.40
2022-12-09T12:53:39.449Z,14.60
2022-12-09T12:56:19.432Z,16.00
2022-12-09T12:58:52.902Z,13.60
2022-12-09T13:01:30.919Z,14.93
2022-12-09T13:04:25.969Z,15.27
2022-12-09T13:07:53.066Z,15.50
2022-12-09T13:10:24.714Z,14.50
2022-12-09T13:12:55.181Z,14.50
2022-12-09T13:15:27.489Z,15.30
2022-12-09T13:17:54.684Z,15.07
2022-12-09T13:20:28.831Z,14.73
2022-12-09T13:23:48.542Z,13.60
2022-12-09T13:26:21.035Z,14.63
2022-12-09T13:28:59.698Z,14.03
2022-12-09T13:31:30.315Z,15.30
2022-12-09T13:34:14.699Z,14.70
2022-12-09T13:36:45.635Z,14.83
2022-12-09T13:39:33.630Z,15.27
2022-12-09T13:42:18.883Z,16.00
2022-12-09T13:44:49.221Z,19.80
2022-12-09T13:47:28.159Z,18.37
2022-12-09T13:50:04.500Z,18.87
2022-12-09T13:52:41.068Z,21.60
2022-12-09T13:55:39.833Z,16.30
2022-12-09T13:58:16.746Z,15.90
2022-12-09T14:01:02.831Z,15.00
2022-12-09T14:03:34.844Z,17.40
2022-12-09T14:06:16.352Z,15.10
2022-12-09T14:08:50.595Z,15.97
2022-12-09T14:11:40.737Z,15.97
2022-12-09T14:14:25.912Z,15.87
2022-12-09T14:16:57.804Z,16.30
2022-12-09T14:19:24.487Z,19.60
2022-12-09T14:22:22.673Z,21.30
2022-12-09T14:24:57.222Z,17.20
2022-12-09T14:27:27.224Z,16.53
2022-12-09T14:29:57.444Z,18.00
2022-12-09T14:32:24.583Z,16.30
2022-12-09T14:35:09.393Z,16.63
2022-12-09T14:37:45.099Z,17.40
2022-12-09T14:40:14.900Z,19.47
2022-12-09T14:43:01.097Z,17.17
2022-12-09T14:45:42.693Z,18.17
2022-12-09T14:48:12.426Z,20.10
2022-12-09T14:50:39.600Z,21.60
2022-12-09T14:53:18.575Z,21.80
2022-12-09T14:55:45.589Z,19.60
2022-12-09T14:58:20.485Z,18.50
2022-12-09T15:00:47.372Z,19.70
2022-12-09T15:03:33.313Z,19.77
2022-12-09T15:06:11.466Z,19.87
2022-12-09T15:08:40.695Z,21.00
2022-12-09T15:11:18.222Z,20.00
2022-12-09T15:13:48.115Z,25.30
2022-12-09T15:16:21.206Z,22.87
2022-12-09T15:18:50.051Z,20.67
2022-12-09T15:21:30.471Z,21.57
2022-12-09T15:23:59.282Z,21.13
2022-12-09T15:26:34.232Z,21.70
2022-12-09T15:29:04.999Z,21.93
2022-12-09T15:31:34.289Z,20.80
2022-12-09T15:34:11.900Z,21.37
2022-12-09T15:36:52.089Z,21.57
2022-12-09T15:39:27.858Z,22.73
2022-12-09T15:42:10.831Z,22.63
2022-12-09T15:44:37.514Z,21.13
2022-12-09T15:47:10.459Z,20.77
2022-12-09T15:49:44.716Z,20.90
2022-12-09T15:52:14.027Z,20.40
2022-12-09T15:54:44.563Z,21.97
2022-12-09T15:57:15.575Z,23.50
2022-12-09T15:59:55.836Z,20.90
2022-12-09T16:02:27.450Z,20.20
2022-12-09T16:04:56.348Z,24.03
2022-12-09T16:07:25.295Z,20.83
2022-12-09T16:10:16.134Z,20.03
2022-12-09T16:12:43.909Z,19.80
2022-12-09T16:15:14.006Z,21.17
2022-12-09T16:17:56.648Z,23.00
2022-12-09T16:20:40.126Z,25.13
2022-12-09T16:23:24.644Z,24.53
2022-12-09T16:25:52.013Z,19.00
2022-12-09T16:28:23.016Z,19.57
2022-12-09T16:30:53.145Z,20.00
2022-12-09T16:33:21.496Z,20.37
2022-12-09T16:35:59.448Z,21.60
2022-12-09T16:38:26.449Z,21.53
2022-12-09T16:40:53.602Z,20.77
2022-12-09T16:43:25.345Z,20.63
2022-12-09T16:46:00.819Z,18.40
2022-12-09T16:48:29.292Z,17.57
2022-12-09T16:51:14.526Z,21.40
2022-12-09T16:53:46.430Z,19.00
2022-12-09T16:56:25.016Z,24.73
2022-12-09T16:58:53.208Z,24.93
2022-12-09T17:01:22.516Z,19.90
2022-12-09T17:03:49.672Z,18.27
2022-12-09T17:06:18.586Z,17.43
2022-12-09T17:08:45.773Z,31.13
2022-12-09T17:11:13.517Z,23.90
2022-12-09T17:13:40.453Z,22.80
2022-12-09T17:16:08.037Z,25.00
2022-12-09T17:18:35.466Z,27.73
2022-12-09T17:21:08.155Z,28.10
2022-12-09T17:23:39.617Z,27.50
2022-12-09T17:26:12.187Z,30.40
2022-12-09T17:28:39.776Z,35.50
2022-12-09T17:31:15.925Z,35.57
2022-12-09T17:33:46.103Z,24.93
2022-12-09T17:36:15.179Z,26.13
2022-12-09T17:38:42.639Z,24.43
2022-12-09T17:41:13.287Z,21.13
2022-12-09T17:43:40.407Z,19.90
2022-12-09T17:46:07.706Z,21.80
2022-12-09T17:48:35.347Z,18.90
2022-12-09T17:51:09.934Z,22.10
2022-12-09T17:53:37.980Z,19.00
2022-12-09T17:56:13.893Z,20.27
2022-12-09T17:58:41.282Z,19.10
2022-12-09T18:01:17.450Z,19.53
2022-12-09T18:03:56.114Z,20.57
2022-12-09T18:06:23.989Z,19.93
2022-12-09T18:08:51.130Z,20.00
2022-12-09T18:11:18.260Z,20.80
2022-12-09T18:13:45.169Z,21.60
2022-12-09T18:16:12.928Z,21.23
2022-12-09T18:18:41.124Z,23.90
2022-12-09T18:21:15.135Z,24.67
2022-12-09T18:23:43.023Z,23.00
2022-12-09T18:26:11.193Z,20.70
2022-12-09T18:28:38.450Z,22.30
2022-12-09T18:31:07.710Z,22.83
2022-12-09T18:33:35.186Z,22.63
2022-12-09T18:36:10.409Z,24.40
2022-12-09T18:38:38.506Z,24.43
2022-12-09T18:41:05.661Z,23.53
2022-12-09T18:43:38.649Z,23.70
2022-12-09T18:46:25.020Z,23.40
2022-12-09T18:48:59.632Z,20.70
2022-12-09T18:51:26.962Z,20.50
2022-12-09T18:53:54.136Z,19.90
2022-12-09T18:56:21.358Z,20.30
2022-12-09T19:01:39.653Z,19.67
2022-12-09T19:04:10.446Z,19.57
2022-12-09T19:06:39.434Z,19.80
2022-12-09T19:09:33.305Z,18.43
2022-12-09T19:12:22.966Z,18.60
2022-12-09T19:14:49.474Z,18.70
2022-12-09T19:17:18.727Z,19.50
2022-12-09T19:19:47.314Z,17.90
2022-12-09T19:22:14.643Z,21.00
2022-12-09T19:24:43.363Z,22.43
2022-12-09T19:27:10.448Z,21.97
2022-12-09T19:29:37.456Z,21.03
2022-12-09T19:32:07.586Z,21.77
2022-12-09T19:34:41.215Z,21.53
2022-12-09T19:37:07.981Z,22.80
2022-12-09T19:39:35.243Z,22.00
2022-12-09T19:42:02.255Z,23.13
2022-12-09T19:45:00.852Z,22.03
2022-12-09T19:47:16.444Z,22.27
2022-12-09T19:49:44.489Z,22.20
2022-12-09T19:52:12.516Z,22.80
2022-12-09T19:54:39.476Z,23.83
2022-12-09T19:57:06.683Z,21.77
2022-12-09T19:59:33.523Z,22.20
2022-12-09T20:02:00.767Z,21.97
2022-12-09T20:07:15.639Z,20.20
2022-12-09T20:09:42.554Z,20.40
2022-12-09T20:12:09.622Z,20.30
2022-12-09T20:14:36.344Z,21.90
2022-12-09T20:17:03.504Z,22.20
2022-12-09T20:19:31.419Z,23.83
2022-12-09T20:21:58.244Z,21.07
2022-12-09T20:24:25.103Z,22.60
2022-12-09T20:26:52.288Z,19.20
2022-12-09T20:29:19.509Z,19.50
2022-12-09T20:31:46.787Z,20.00
2022-12-09T20:34:16.442Z,19.87
2022-12-09T20:36:44.720Z,21.07
2022-12-09T20:39:21.300Z,21.00
2022-12-09T20:41:48.690Z,20.23
2022-12-09T20:44:16.398Z,21.00
2022-12-09T20:46:49.277Z,22.00
2022-12-09T20:49:16.911Z,22.70
2022-12-09T20:51:47.032Z,25.80
2022-12-09T20:54:14.082Z,25.37
2022-12-09T20:56:41.177Z,27.40
2022-12-09T20:59:10.113Z,26.80
2022-12-09T21:01:38.289Z,29.77
2022-12-09T21:04:06.619Z,34.47
2022-12-09T21:06:36.676Z,37.33
2022-12-09T21:09:06.305Z,37.23
2022-12-09T21:11:33.748Z,37.50
2022-12-09T21:14:02.361Z,37.50
2022-12-09T21:16:31.970Z,39.70
2022-12-09T21:19:02.097Z,42.80
2022-12-09T21:21:31.851Z,40.67
2022-12-09T21:23:59.798Z,38.33
2022-12-09T21:26:27.139Z,39.70
2022-12-09T21:28:54.323Z,41.83
2022-12-09T21:31:25.296Z,45.43
2022-12-09T21:33:54.466Z,43.30
2022-12-09T21:36:26.861Z,48.67
2022-12-09T21:38:54.547Z,43.30
2022-12-09T21:41:27.789Z,42.40
2022-12-09T21:43:55.579Z,44.30
2022-12-09T21:46:25.446Z,44.03
2022-12-09T21:48:58.455Z,51.77
2022-12-09T21:51:28.915Z,48.80
2022-12-09T21:53:56.232Z,45.73
2022-12-09T21:56:25.519Z,44.10
2022-12-09T21:58:55.195Z,38.73
2022-12-09T22:01:30.995Z,38.30
2022-12-09T22:03:59.649Z,36.00
2022-12-09T22:06:27.233Z,35.43
2022-12-09T22:08:54.429Z,35.27
2022-12-09T22:11:26.944Z,36.80
2022-12-09T22:13:55.749Z,35.17
2022-12-09T22:16:24.650Z,35.07
2022-12-09T22:18:54.168Z,37.80
2022-12-09T22:21:25.611Z,34.93
2022-12-09T22:23:58.171Z,34.47
2022-12-09T22:26:25.429Z,40.37
2022-12-09T22:28:52.786Z,34.47
2022-12-09T22:31:25.804Z,40.90
2022-12-09T22:33:55.108Z,42.30
2022-12-09T22:36:22.557Z,48.10
2022-12-09T22:38:49.928Z,37.00
2022-12-09T22:41:19.799Z,31.17
2022-12-09T22:43:48.215Z,34.07
2022-12-09T22:46:17.997Z,32.20
2022-12-09T22:48:45.066Z,32.27
2022-12-09T22:51:15.520Z,31.83
2022-12-09T22:53:43.238Z,33.30
2022-12-09T22:56:11.454Z,32.23
2022-12-09T22:58:38.954Z,33.63
2022-12-09T23:01:14.021Z,31.43
2022-12-09T23:03:41.451Z,30.93
2022-12-09T23:06:09.124Z,33.40
2022-12-09T23:08:37.671Z,34.73
2022-12-09T23:11:11.258Z,30.30
2022-12-09T23:13:41.376Z,32.40
2022-12-09T23:16:09.141Z,33.13
2022-12-09T23:18:36.293Z,31.43
2022-12-09T23:21:12.821Z,33.70
2022-12-09T23:23:40.169Z,34.27
2022-12-09T23:26:14.051Z,31.30
2022-12-09T23:28:46.965Z,30.97
2022-12-09T23:31:15.700Z,34.37
2022-12-09T23:33:44.384Z,33.53
2022-12-09T23:36:17.400Z,33.07
2022-12-09T23:38:44.994Z,29.87
2022-12-09T23:41:12.760Z,29.30
2022-12-09T23:43:39.650Z,30.33
2022-12-09T23:46:16.867Z,31.40
2022-12-09T23:48:45.009Z,28.97
2022-12-09T23:51:14.489Z,29.13
2022-12-09T23:53:42.716Z,29.07
2022-12-09T23:56:16.103Z,28.07
2022-12-09T23:58:44.545Z,24.97
